NCAR-RAP Real-Time Weather Data

Output produced by METARs form (04 May 2016  23:05 UTC)
found at http://weather.rap.ucar.edu/surface/
 
Conditions at: K4O4 observed 04 May 2016  22:55 UTC
Temperature: 26.0°C (79°F)
Dewpoint: 7.0°C (45°F) [RH = 30%]
Pressure (altimeter): 29.90 inches Hg (1012.6 mb)
Winds: from the NW (320 degrees) at 16 MPH (14 knots; 7.3 m/s)
gusting to 20 MPH (17 knots; 8.8 m/s)
Visibility: 10 or more miles (16+ km)
Ceiling: at least 12,000 feet AGL
Clouds: sky clear below 12,000 feet AGL
Present Weather: automated observation with no human augmentation;
there may or may not be significant weather present at this time
K4O4 042255Z AUTO 32014G17KT 10SM CLR 26/07 A2990 RMK AO2